• Join FlightAware (Why Join?)
  • Login
  • US Flag GB Flag 
00:31 EDT


 

Airport Tracker/Info


-or-


 

Live Flight TrackerFlight Track Log ✈ CTL18 ✈ 22-May-2013 ✈ KPTK - KMBS

Flight Track Log - Related Links

Times and Time Zones

All times are in EDT time to prevent confusion due to time zone crossing. See the CTL18 flight status page for this flight to view local times or setup timezone preferences in your user account.

Time Position Orientation Groundspeed Altitude Reporting Facility
EDT Latitude Longitude Course Direction KTS MPH feet Rate Location/Type
18:59 42.6622 -83.4406 274° West 116 133 1,400  Level Cleveland Center
18:59 42.6636 -83.4689 274° West 112 129 2,000 960 Climbing Cleveland Center
19:00 42.6731 -83.5117 287° West 129 148 3,000 960 Climbing Cleveland Center
19:02 42.6988 -83.4641 54° Northeast  Level FlightAware Approximate
19:09 42.9385 -83.4090 321° Northwest  Level FlightAware Approximate
19:10 42.9659 -83.4391 321° Northwest  Level FlightAware Approximate
19:11 42.9933 -83.4693 321° Northwest  Level FlightAware Approximate
19:12 43.0207 -83.4995 321° Northwest  Level FlightAware Approximate
19:13 43.0481 -83.5297 321° Northwest  Level FlightAware Approximate
19:14 43.0754 -83.5600 321° Northwest  Level FlightAware Approximate
19:15 43.1028 -83.5902 321° Northwest  Level FlightAware Approximate
19:16 43.1301 -83.6206 321° Northwest  Level FlightAware Approximate
19:17 43.1575 -83.6509 321° Northwest  Level FlightAware Approximate
19:18 43.1848 -83.6813 321° Northwest  Level FlightAware Approximate
19:19 43.2122 -83.7116 321° Northwest  Level FlightAware Approximate
19:20 43.2386 -83.7434 318° Northwest  Level FlightAware Approximate
19:21 43.2649 -83.7755 318° Northwest  Level FlightAware Approximate
19:22 43.2912 -83.8076 318° Northwest  Level FlightAware Approximate
19:23 43.3175 -83.8398 318° Northwest  Level FlightAware Approximate
19:24 43.3438 -83.8719 318° Northwest  Level FlightAware Approximate
19:25 43.3703 -83.9036 324° Northwest  Level FlightAware Approximate
19:26 43.3988 -83.9321 324° Northwest  Level FlightAware Approximate
19:27 43.4273 -83.9605 324° Northwest  Level FlightAware Approximate
19:28 43.4557 -83.9890 324° Northwest  Level FlightAware Approximate
19:29 43.4842 -84.0175 324° Northwest  Level FlightAware Approximate